Terminal Aerodrome Forecast
Issued by NWS Shreveport, LA

Home | Current Version | Previous Version | Text Only | Print | Product List | Glossary On
Versions: 1 2 3 4 5 6 7 8 9 10 11 12
000
FTUS44 KSHV 011744
TAFTXK
TAF
KTXK 011744Z 0118/0218 VRB05KT P6SM SCT045 BKN150 BKN250
     FM020100 18004KT P6SM BKN150 BKN250
     FM021600 16005KT P6SM FEW035 BKN120 BKN250=

USA.gov is the U.S. government's official web portal to all federal, state and local government web resources and services.